createdAt,value
2017-10-20T00:02:25.422Z,95.30
2017-10-20T00:04:54.025Z,95.10
2017-10-20T00:07:23.392Z,94.70
2017-10-20T00:09:51.345Z,94.70
2017-10-20T00:12:19.544Z,94.40
2017-10-20T00:14:47.769Z,94.40
2017-10-20T00:17:16.230Z,94.30
2017-10-20T00:19:45.468Z,93.70
2017-10-20T00:22:14.222Z,93.70
2017-10-20T00:24:43.364Z,93.70
2017-10-20T00:27:11.394Z,93.70
2017-10-20T00:29:40.233Z,93.80
2017-10-20T00:32:08.350Z,93.80
2017-10-20T00:34:37.657Z,93.40
2017-10-20T00:37:06.553Z,93.30
2017-10-20T00:39:35.791Z,93.50
2017-10-20T00:42:03.856Z,93.50
2017-10-20T00:44:32.139Z,93.70
2017-10-20T00:47:00.170Z,93.50
2017-10-20T00:49:29.012Z,93.10
2017-10-20T00:51:57.664Z,93.10
2017-10-20T00:54:26.358Z,93.10
2017-10-20T00:56:54.512Z,93.30
2017-10-20T00:59:23.629Z,94.30
2017-10-20T01:01:51.615Z,94.30
2017-10-20T01:04:20.205Z,94.70
2017-10-20T01:06:48.913Z,95.00
2017-10-20T01:09:17.494Z,95.40
2017-10-20T01:11:45.462Z,95.70
2017-10-20T01:14:14.589Z,95.90
2017-10-20T01:16:42.613Z,95.90
2017-10-20T01:19:10.780Z,95.70
2017-10-20T01:21:39.019Z,95.10
2017-10-20T01:24:07.717Z,94.80
2017-10-20T01:26:37.008Z,95.30
2017-10-20T01:29:05.178Z,95.30
2017-10-20T01:31:33.300Z,95.50
2017-10-20T01:34:01.472Z,96.00
2017-10-20T01:36:30.465Z,96.70
2017-10-20T01:38:59.022Z,97.60
2017-10-20T01:41:28.234Z,97.30
2017-10-20T01:43:56.518Z,97.30
2017-10-20T01:46:24.693Z,97.20
2017-10-20T01:48:52.745Z,97.30
2017-10-20T01:51:22.436Z,97.10
2017-10-20T01:53:50.653Z,97.10
2017-10-20T01:56:19.438Z,97.00
2017-10-20T01:58:48.105Z,96.70
2017-10-20T02:01:16.824Z,96.30
2017-10-20T02:03:44.800Z,96.30
2017-10-20T02:06:13.429Z,96.60
2017-10-20T02:08:42.077Z,96.80
2017-10-20T02:11:10.769Z,97.10
2017-10-20T02:13:40.316Z,97.10
2017-10-20T02:16:09.243Z,96.80
2017-10-20T02:18:37.477Z,96.20
2017-10-20T02:21:06.165Z,96.10
2017-10-20T02:23:35.342Z,95.80
2017-10-20T02:26:03.879Z,95.80
2017-10-20T02:28:33.405Z,97.70
2017-10-20T02:31:01.462Z,97.70
2017-10-20T02:33:30.349Z,97.50
2017-10-20T02:35:59.241Z,97.10
2017-10-20T02:38:28.040Z,97.00
2017-10-20T02:40:57.451Z,97.10
2017-10-20T02:43:26.090Z,97.10
2017-10-20T02:45:54.114Z,97.20
2017-10-20T02:48:22.160Z,97.30
2017-10-20T02:50:52.881Z,97.60
2017-10-20T02:53:21.114Z,97.50
2017-10-20T02:55:49.697Z,97.00
2017-10-20T02:58:18.257Z,96.70
2017-10-20T03:00:46.569Z,96.40
2017-10-20T03:03:14.652Z,96.10
2017-10-20T03:05:42.798Z,96.10
2017-10-20T03:08:10.841Z,95.70
2017-10-20T03:10:40.111Z,94.80
2017-10-20T03:13:08.818Z,94.80
2017-10-20T03:15:38.199Z,95.00
2017-10-20T03:18:06.352Z,94.90
2017-10-20T03:20:34.490Z,95.20
2017-10-20T03:23:03.272Z,94.80
2017-10-20T03:25:32.065Z,94.60
2017-10-20T03:28:01.554Z,94.40
2017-10-20T03:30:30.271Z,94.40
2017-10-20T03:32:58.341Z,94.20
2017-10-20T03:35:27.157Z,94.20
2017-10-20T03:37:55.940Z,94.20
2017-10-20T03:40:24.747Z,94.20
2017-10-20T03:42:53.350Z,94.10
2017-10-20T03:45:21.936Z,93.90
2017-10-20T03:47:49.936Z,93.50
2017-10-20T03:50:18.790Z,92.50
2017-10-20T03:52:47.317Z,92.50
2017-10-20T03:55:16.519Z,92.20
2017-10-20T03:57:45.937Z,92.00
2017-10-20T04:00:13.979Z,92.00
2017-10-20T04:02:42.029Z,91.90
2017-10-20T04:05:10.345Z,91.30
2017-10-20T04:07:39.730Z,86.80
2017-10-20T04:10:07.865Z,86.70
2017-10-20T04:12:36.673Z,87.10
2017-10-20T04:15:05.310Z,88.40
2017-10-20T04:17:33.469Z,89.60
2017-10-20T04:20:02.418Z,90.80
2017-10-20T04:22:30.410Z,90.80
2017-10-20T04:24:58.374Z,91.50
2017-10-20T04:27:26.567Z,91.60
2017-10-20T04:29:56.013Z,90.20
2017-10-20T04:32:24.085Z,89.60
2017-10-20T04:34:52.177Z,87.50
2017-10-20T04:37:20.174Z,86.30
2017-10-20T04:39:48.681Z,85.20
2017-10-20T04:42:18.208Z,84.00
2017-10-20T04:44:46.673Z,83.90
2017-10-20T04:47:16.120Z,82.50
2017-10-20T04:49:45.082Z,82.50
2017-10-20T04:52:13.835Z,80.20
2017-10-20T04:54:41.819Z,80.10
2017-10-20T04:57:10.314Z,80.70
2017-10-20T04:59:39.458Z,82.40
2017-10-20T05:02:07.536Z,82.40
2017-10-20T05:04:35.500Z,84.30
2017-10-20T05:07:03.549Z,84.50
2017-10-20T05:09:32.152Z,85.00
2017-10-20T05:12:00.713Z,85.80
2017-10-20T05:14:29.565Z,85.80
2017-10-20T05:16:58.325Z,87.20
2017-10-20T05:19:26.332Z,87.10
2017-10-20T05:21:54.471Z,86.20
2017-10-20T05:24:22.983Z,85.30
2017-10-20T05:26:51.511Z,85.10
2017-10-20T05:29:23.011Z,85.60
2017-10-20T05:31:56.478Z,86.80
2017-10-20T05:34:24.549Z,87.10
2017-10-20T05:36:52.535Z,87.80
2017-10-20T05:39:25.730Z,89.10
2017-10-20T05:41:54.515Z,89.90
2017-10-20T05:44:22.962Z,90.10
2017-10-20T05:47:05.648Z,86.60
2017-10-20T05:49:34.990Z,85.10
2017-10-20T05:52:03.079Z,85.10
2017-10-20T05:54:31.204Z,83.70
2017-10-20T05:57:00.427Z,85.10
2017-10-20T05:59:29.691Z,85.90
2017-10-20T06:01:58.403Z,85.90
2017-10-20T06:04:27.159Z,93.10
2017-10-20T06:06:55.164Z,93.00
2017-10-20T06:09:24.111Z,93.90
2017-10-20T06:11:52.114Z,93.90
2017-10-20T06:14:20.594Z,94.40
2017-10-20T06:16:49.927Z,97.00
2017-10-20T06:19:17.956Z,96.90
2017-10-20T06:21:45.970Z,97.90
2017-10-20T06:24:18.774Z,97.10
2017-10-20T06:26:46.939Z,97.10
2017-10-20T06:29:15.026Z,96.60
2017-10-20T06:31:43.158Z,96.50
2017-10-20T06:34:11.960Z,95.30
2017-10-20T06:36:40.756Z,94.90
2017-10-20T06:39:09.658Z,94.80
2017-10-20T06:41:37.808Z,94.80
2017-10-20T06:44:06.551Z,95.00
2017-10-20T06:46:35.059Z,95.00
2017-10-20T06:49:03.675Z,95.20
2017-10-20T06:51:32.815Z,94.50
2017-10-20T06:54:00.987Z,94.50
2017-10-20T06:56:29.087Z,94.00
2017-10-20T06:58:57.763Z,93.20
2017-10-20T07:01:26.311Z,92.50
2017-10-20T07:03:55.082Z,91.10
2017-10-20T07:06:23.870Z,90.00
2017-10-20T07:08:52.752Z,90.80
2017-10-20T07:11:22.006Z,91.60
2017-10-20T07:13:50.043Z,91.40
2017-10-20T07:16:18.687Z,91.90
2017-10-20T07:18:48.759Z,92.10
2017-10-20T07:21:16.928Z,92.50
2017-10-20T07:23:45.079Z,92.50
2017-10-20T07:26:13.979Z,92.30
2017-10-20T07:28:43.364Z,92.20
2017-10-20T07:31:11.747Z,92.20
2017-10-20T07:33:40.502Z,92.70
2017-10-20T07:36:09.180Z,92.40
2017-10-20T07:38:38.239Z,92.80
2017-10-20T07:41:07.027Z,92.70
2017-10-20T07:43:36.438Z,92.40
2017-10-20T07:46:05.435Z,92.00
2017-10-20T07:48:33.483Z,92.00
2017-10-20T07:51:03.573Z,92.40
2017-10-20T07:53:31.708Z,92.30
2017-10-20T07:55:59.735Z,92.30
2017-10-20T07:58:28.250Z,92.70
2017-10-20T08:00:57.174Z,91.80
2017-10-20T08:03:25.800Z,91.80
2017-10-20T08:05:53.842Z,91.80
2017-10-20T08:08:22.563Z,91.60
2017-10-20T08:10:50.552Z,91.80
2017-10-20T08:13:19.328Z,91.60
2017-10-20T08:15:48.266Z,91.30
2017-10-20T08:18:16.644Z,91.30
2017-10-20T08:20:44.667Z,90.50
2017-10-20T08:23:12.784Z,89.30
2017-10-20T08:25:40.811Z,84.30
2017-10-20T08:28:08.976Z,88.50
2017-10-20T08:30:37.240Z,83.90
2017-10-20T08:33:05.287Z,82.00
2017-10-20T08:35:34.054Z,79.90
2017-10-20T08:38:02.942Z,86.00
2017-10-20T08:40:31.641Z,93.90
2017-10-20T08:42:59.738Z,93.90
2017-10-20T08:45:28.712Z,92.60
2017-10-20T08:47:57.564Z,91.80
2017-10-20T08:50:27.668Z,95.50
2017-10-20T08:52:55.878Z,95.50
2017-10-20T08:55:24.647Z,97.10
2017-10-20T08:57:52.703Z,97.10
2017-10-20T09:00:21.444Z,96.20
2017-10-20T09:02:50.753Z,97.40
2017-10-20T09:05:19.876Z,98.00
2017-10-20T09:07:49.562Z,98.40
2017-10-20T09:10:17.743Z,98.30
2017-10-20T09:12:45.791Z,98.10
2017-10-20T09:15:14.643Z,98.50
2017-10-20T09:17:43.100Z,98.40
2017-10-20T09:20:11.214Z,97.30
2017-10-20T09:22:40.281Z,97.00
2017-10-20T09:25:08.385Z,97.80
2017-10-20T09:27:36.559Z,97.60
2017-10-20T09:30:04.811Z,97.50
2017-10-20T09:32:33.439Z,97.50
2017-10-20T09:35:02.858Z,97.10
2017-10-20T09:37:32.243Z,97.00
2017-10-20T09:40:01.620Z,97.10
2017-10-20T09:42:29.681Z,97.10
2017-10-20T09:44:57.769Z,97.20
2017-10-20T09:47:26.384Z,97.20
2017-10-20T09:49:55.596Z,96.40
2017-10-20T09:52:25.023Z,96.40
2017-10-20T09:54:53.065Z,96.40
2017-10-20T09:57:21.862Z,96.00
2017-10-20T09:59:50.735Z,97.20
2017-10-20T10:02:20.071Z,98.00
2017-10-20T10:04:48.871Z,98.20
2017-10-20T10:07:17.018Z,99.00
2017-10-20T10:09:46.275Z,98.90
2017-10-20T10:12:14.284Z,98.90
2017-10-20T10:14:43.142Z,98.00
2017-10-20T10:17:11.716Z,98.00
2017-10-20T10:19:39.770Z,98.20
2017-10-20T10:22:07.907Z,98.30
2017-10-20T10:24:37.184Z,99.90
2017-10-20T10:27:05.224Z,99.90
2017-10-20T10:42:24.759Z,96.40
2017-10-20T10:44:53.496Z,97.00
2017-10-20T10:47:21.524Z,97.00
2017-10-20T10:49:50.100Z,97.10
2017-10-20T10:52:19.443Z,97.10
2017-10-20T10:54:48.091Z,97.00
2017-10-20T10:57:16.895Z,97.30
2017-10-20T10:59:44.913Z,97.70
2017-10-20T11:02:12.904Z,99.60
2017-10-20T11:04:41.650Z,99.90
2017-10-20T11:07:21.899Z,99.90
2017-10-20T11:10:01.448Z,99.90
2017-10-20T11:12:45.596Z,99.90
2017-10-20T11:15:14.574Z,99.90
2017-10-20T11:17:42.600Z,99.90
2017-10-20T11:20:11.111Z,99.90
2017-10-20T11:22:39.999Z,98.90
2017-10-20T11:25:09.441Z,96.70
2017-10-20T11:27:37.994Z,96.60
2017-10-20T11:30:06.981Z,99.00
2017-10-20T11:32:35.759Z,98.70
2017-10-20T11:35:05.076Z,99.00
2017-10-20T11:37:34.663Z,99.90
2017-10-20T11:40:03.170Z,99.90
2017-10-20T11:42:32.108Z,99.90
2017-10-20T11:45:00.286Z,99.90
2017-10-20T11:47:28.288Z,99.90
2017-10-20T11:49:56.308Z,99.90
2017-10-20T11:52:25.010Z,99.90
2017-10-20T11:54:53.063Z,99.90
2017-10-20T11:57:21.095Z,99.90
2017-10-20T11:59:50.020Z,99.90
2017-10-20T12:02:17.992Z,99.90
2017-10-20T12:04:46.054Z,99.90
2017-10-20T12:07:14.208Z,99.90
2017-10-20T12:09:43.567Z,99.90
2017-10-20T12:12:11.588Z,99.90
2017-10-20T12:14:40.475Z,99.90
2017-10-20T12:17:09.235Z,99.90
2017-10-20T12:19:37.807Z,99.90
2017-10-20T12:22:05.904Z,99.90
2017-10-20T12:24:34.502Z,99.90
2017-10-20T12:27:03.944Z,99.90
2017-10-20T12:29:33.524Z,99.90
2017-10-20T12:32:02.295Z,99.90
2017-10-20T12:34:30.272Z,99.90
2017-10-20T12:36:58.348Z,99.90
2017-10-20T12:39:26.916Z,99.90
2017-10-20T12:41:55.458Z,99.90
2017-10-20T12:44:24.149Z,99.90
2017-10-20T12:46:52.260Z,99.90
2017-10-20T12:49:20.224Z,99.90
2017-10-20T12:51:48.913Z,99.90
2017-10-20T12:54:16.911Z,99.50
2017-10-20T12:56:47.274Z,99.90
2017-10-20T12:59:15.451Z,99.90
2017-10-20T13:01:43.977Z,99.90
2017-10-20T13:04:11.986Z,99.90
2017-10-20T13:06:40.652Z,99.90
2017-10-20T13:09:09.391Z,99.90
2017-10-20T13:11:37.927Z,99.90
2017-10-20T13:14:07.307Z,99.90
2017-10-20T13:16:35.915Z,99.90
2017-10-20T13:19:04.734Z,99.90
2017-10-20T13:21:32.848Z,99.90
2017-10-20T13:24:00.847Z,99.90
2017-10-20T13:26:30.399Z,99.90
2017-10-20T13:28:58.579Z,99.90
2017-10-20T13:31:26.607Z,99.90
2017-10-20T13:33:55.387Z,99.90
2017-10-20T13:36:23.471Z,99.90
2017-10-20T13:38:52.786Z,99.90
2017-10-20T13:41:21.574Z,99.90
2017-10-20T13:43:50.436Z,99.90
2017-10-20T13:46:18.638Z,99.90
2017-10-20T13:48:47.461Z,99.90
2017-10-20T13:51:15.610Z,99.90
2017-10-20T13:53:45.127Z,99.90
2017-10-20T13:56:13.185Z,99.90
2017-10-20T13:58:42.679Z,99.90
2017-10-20T14:01:11.428Z,99.90
2017-10-20T14:03:39.618Z,99.90
2017-10-20T14:06:07.843Z,99.90
2017-10-20T14:08:36.412Z,99.90
2017-10-20T14:11:05.108Z,99.90
2017-10-20T14:13:34.628Z,99.90
2017-10-20T14:16:02.643Z,99.90
2017-10-20T14:18:30.658Z,99.90
2017-10-20T14:20:59.546Z,99.90
2017-10-20T14:23:28.350Z,99.90
2017-10-20T14:25:56.376Z,99.90
2017-10-20T14:28:24.960Z,99.90
2017-10-20T14:30:53.518Z,99.90
2017-10-20T14:33:21.627Z,99.90
2017-10-20T14:35:49.814Z,99.90
2017-10-20T14:38:18.547Z,99.90
2017-10-20T14:40:47.287Z,99.90
2017-10-20T14:43:16.218Z,99.90
2017-10-20T14:45:44.786Z,99.90
2017-10-20T14:48:12.954Z,99.90
2017-10-20T14:50:41.840Z,99.90
2017-10-20T14:53:10.672Z,99.90
2017-10-20T14:55:38.648Z,99.90
2017-10-20T14:58:07.331Z,99.90
2017-10-20T15:00:35.391Z,99.90
2017-10-20T15:03:03.402Z,99.90
2017-10-20T15:05:31.628Z,99.90
2017-10-20T15:07:59.706Z,99.90
2017-10-20T15:10:27.720Z,99.90
2017-10-20T15:12:56.411Z,99.90
2017-10-20T15:15:24.916Z,99.90
2017-10-20T15:17:54.235Z,99.90
2017-10-20T15:20:23.583Z,99.90
2017-10-20T15:22:51.602Z,99.90
2017-10-20T15:25:20.355Z,99.90
2017-10-20T15:27:48.510Z,99.90
2017-10-20T15:30:17.286Z,99.90
2017-10-20T15:32:45.846Z,99.90
2017-10-20T15:35:14.712Z,99.90
2017-10-20T15:37:42.775Z,99.90
2017-10-20T15:40:11.332Z,99.90
2017-10-20T15:42:40.079Z,99.90
2017-10-20T15:45:09.382Z,99.90
2017-10-20T15:47:38.822Z,99.90
2017-10-20T15:50:07.154Z,99.90
2017-10-20T15:52:35.891Z,99.90
2017-10-20T15:55:03.891Z,99.90
2017-10-20T15:57:32.614Z,99.90
2017-10-20T16:00:01.955Z,99.90
2017-10-20T16:02:31.354Z,99.90
2017-10-20T16:04:59.427Z,99.90
2017-10-20T16:07:27.436Z,99.90
2017-10-20T16:09:55.472Z,99.90
2017-10-20T16:12:24.139Z,99.90
2017-10-20T16:14:52.776Z,99.90
2017-10-20T16:17:21.518Z,99.90
2017-10-20T16:19:50.239Z,99.90
2017-10-20T16:22:18.267Z,99.90
2017-10-20T16:24:46.286Z,99.90
2017-10-20T16:27:14.955Z,99.90
2017-10-20T16:29:43.492Z,99.90
2017-10-20T16:32:12.334Z,99.90
2017-10-20T16:34:41.217Z,99.90
2017-10-20T16:37:09.219Z,99.90
2017-10-20T16:39:37.180Z,99.90
2017-10-20T16:42:05.955Z,99.90
2017-10-20T16:44:34.551Z,99.90
2017-10-20T16:47:03.322Z,99.90
2017-10-20T16:49:31.990Z,99.90
2017-10-20T16:52:00.189Z,99.90
2017-10-20T16:54:28.185Z,99.90
2017-10-20T16:56:56.291Z,99.90
2017-10-20T16:59:25.551Z,99.90
2017-10-20T17:01:54.319Z,99.90
2017-10-20T17:04:22.939Z,99.90
2017-10-20T17:06:51.000Z,99.90
2017-10-20T17:09:18.992Z,99.90
2017-10-20T17:11:47.194Z,99.90
2017-10-20T17:14:16.018Z,99.90
2017-10-20T17:16:44.103Z,99.90
2017-10-20T17:19:12.300Z,99.90
2017-10-20T17:21:40.742Z,99.90
2017-10-20T17:24:08.852Z,99.90
2017-10-20T17:26:37.063Z,99.90
2017-10-20T17:29:06.378Z,99.90
2017-10-20T17:31:35.088Z,99.90
2017-10-20T17:34:03.219Z,99.90
2017-10-20T17:36:32.495Z,99.90
2017-10-20T17:39:00.550Z,99.90
2017-10-20T17:41:28.656Z,99.90
2017-10-20T17:43:57.352Z,99.90
2017-10-20T17:46:26.552Z,99.90
2017-10-20T17:48:56.068Z,99.90
2017-10-20T17:51:25.256Z,99.90
2017-10-20T17:53:54.172Z,99.90
2017-10-20T17:56:22.291Z,99.90
2017-10-20T17:58:50.288Z,99.90
2017-10-20T18:01:19.499Z,99.90
2017-10-20T18:03:48.823Z,99.90
2017-10-20T18:06:17.282Z,99.90
2017-10-20T18:08:46.079Z,99.90
2017-10-20T18:11:15.022Z,99.90
2017-10-20T18:13:43.487Z,99.90
2017-10-20T18:16:11.904Z,99.90
2017-10-20T18:18:40.738Z,99.90
2017-10-20T18:21:09.350Z,99.90
2017-10-20T18:23:37.390Z,99.90
2017-10-20T18:26:05.525Z,99.90
2017-10-20T18:28:33.979Z,99.90
2017-10-20T18:31:02.675Z,99.90
2017-10-20T18:33:31.539Z,99.90
2017-10-20T18:36:00.244Z,99.90
2017-10-20T18:38:29.667Z,99.90
2017-10-20T18:40:57.838Z,99.90
2017-10-20T18:43:25.899Z,99.90
2017-10-20T18:45:54.482Z,99.90
2017-10-20T18:48:22.586Z,99.90
2017-10-20T18:50:51.211Z,99.90
2017-10-20T18:53:19.656Z,99.90
2017-10-20T18:55:47.928Z,99.90
2017-10-20T18:58:15.896Z,99.90
2017-10-20T19:00:44.661Z,99.90
2017-10-20T19:03:13.104Z,99.90
2017-10-20T19:05:42.648Z,99.90
2017-10-20T19:08:10.959Z,99.90
2017-10-20T19:10:39.107Z,99.90
2017-10-20T19:13:07.287Z,99.90
2017-10-20T19:15:35.947Z,99.90
2017-10-20T19:18:04.064Z,99.90
2017-10-20T19:20:32.659Z,99.90
2017-10-20T19:23:01.052Z,99.90
2017-10-20T19:25:29.950Z,99.90
2017-10-20T19:27:58.785Z,99.90
2017-10-20T19:30:27.346Z,99.90
2017-10-20T19:32:56.276Z,99.90
2017-10-20T19:35:25.053Z,99.90
2017-10-20T19:37:53.596Z,99.90
2017-10-20T19:40:22.443Z,99.90
2017-10-20T19:42:50.459Z,99.90
2017-10-20T19:45:19.195Z,99.90
2017-10-20T19:47:47.879Z,99.90
2017-10-20T19:50:17.551Z,99.90
2017-10-20T19:52:47.551Z,99.90
2017-10-20T19:55:16.411Z,99.90
2017-10-20T19:57:45.092Z,99.90
2017-10-20T20:00:13.272Z,99.90
2017-10-20T20:02:43.302Z,99.90
2017-10-20T20:05:12.936Z,99.90
2017-10-20T20:07:42.852Z,99.90
2017-10-20T20:10:11.631Z,99.90
2017-10-20T20:12:39.848Z,99.90
2017-10-20T20:15:07.959Z,99.90
2017-10-20T20:17:38.248Z,99.90
2017-10-20T20:20:07.160Z,99.90
2017-10-20T20:22:36.556Z,99.90
2017-10-20T20:25:06.060Z,99.90
2017-10-20T20:27:35.019Z,99.90
2017-10-20T20:30:03.940Z,99.90
2017-10-20T20:32:34.263Z,99.90
2017-10-20T20:35:03.392Z,99.90
2017-10-20T20:37:32.755Z,99.90
2017-10-20T20:40:02.084Z,99.90
2017-10-20T20:42:30.722Z,99.90
2017-10-20T20:44:59.898Z,99.90
2017-10-20T20:47:28.744Z,99.90
2017-10-20T20:49:57.507Z,99.90
2017-10-20T20:52:26.640Z,99.90
2017-10-20T20:54:56.750Z,99.90
2017-10-20T20:57:26.099Z,99.90
2017-10-20T20:59:55.599Z,99.90
2017-10-20T21:02:24.103Z,99.90
2017-10-20T21:04:54.279Z,99.90
2017-10-20T21:07:23.813Z,99.90
2017-10-20T21:09:51.971Z,99.90
2017-10-20T21:12:21.108Z,99.90
2017-10-20T21:14:50.260Z,99.90
2017-10-20T21:17:19.142Z,99.90
2017-10-20T21:19:50.195Z,99.90
2017-10-20T21:22:18.958Z,99.90
2017-10-20T21:24:49.238Z,99.90
2017-10-20T21:27:17.810Z,99.90
2017-10-20T21:29:46.096Z,99.90
2017-10-20T21:32:14.344Z,99.90
2017-10-20T21:34:43.882Z,99.90
2017-10-20T21:37:12.411Z,99.90
2017-10-20T21:39:41.949Z,99.90
2017-10-20T21:42:10.147Z,99.90
2017-10-20T21:44:39.194Z,99.90
2017-10-20T21:47:08.751Z,99.90
2017-10-20T21:49:39.435Z,99.90
2017-10-20T21:52:09.264Z,99.90
2017-10-20T21:54:38.426Z,99.90
2017-10-20T21:57:09.323Z,99.90
2017-10-20T21:59:39.698Z,99.90
2017-10-20T22:02:08.983Z,99.90
2017-10-20T22:04:39.318Z,99.90
2017-10-20T22:07:09.380Z,99.90
2017-10-20T22:09:38.160Z,99.90
2017-10-20T22:12:06.659Z,99.90
2017-10-20T22:14:34.627Z,99.90
2017-10-20T22:17:03.140Z,99.90
2017-10-20T22:19:32.649Z,99.90
2017-10-20T22:22:03.011Z,99.90
2017-10-20T22:24:33.912Z,99.90
2017-10-20T22:27:02.892Z,99.90
2017-10-20T22:29:32.468Z,99.90
2017-10-20T22:32:01.198Z,99.90
2017-10-20T22:34:29.711Z,99.90
2017-10-20T22:37:00.059Z,99.90
2017-10-20T22:39:29.000Z,99.90
2017-10-20T22:41:59.479Z,99.90
2017-10-20T22:44:28.558Z,99.90
2017-10-20T22:46:57.214Z,99.90
2017-10-20T22:49:25.612Z,99.90
2017-10-20T22:51:57.016Z,99.90
2017-10-20T22:54:26.483Z,99.90
2017-10-20T22:56:54.705Z,99.90
2017-10-20T22:59:25.675Z,99.90
2017-10-20T23:01:53.708Z,99.90
2017-10-20T23:04:23.742Z,99.90
2017-10-20T23:06:52.328Z,99.90
2017-10-20T23:09:22.170Z,99.90
2017-10-20T23:11:50.958Z,99.90
2017-10-20T23:14:21.102Z,99.90
2017-10-20T23:16:50.130Z,99.90
2017-10-20T23:19:18.140Z,99.90
2017-10-20T23:21:47.304Z,99.90
2017-10-20T23:24:15.491Z,99.90
2017-10-20T23:26:44.424Z,99.90
2017-10-20T23:29:13.179Z,99.90
2017-10-20T23:31:41.326Z,99.90
2017-10-20T23:34:09.919Z,99.90
2017-10-20T23:36:40.878Z,99.90
2017-10-20T23:39:11.536Z,99.90
2017-10-20T23:41:40.144Z,99.90
2017-10-20T23:44:09.118Z,99.90
2017-10-20T23:46:38.414Z,99.90
2017-10-20T23:49:06.560Z,99.90
2017-10-20T23:51:36.098Z,99.90
2017-10-20T23:54:06.242Z,99.90
2017-10-20T23:56:35.495Z,99.90
2017-10-20T23:59:05.756Z,99.90
